createdAt,value
2024-02-27T00:01:00.778Z,60018.16
2024-02-27T00:06:23.053Z,60011.84
2024-02-27T00:11:26.887Z,60028.66
2024-02-27T00:16:29.141Z,60001.34
2024-02-27T00:21:31.206Z,60016.06
2024-02-27T00:26:34.778Z,60032.88
2024-02-27T00:31:36.907Z,60009.75
2024-02-27T00:37:43.288Z,60007.66
2024-02-27T00:43:36.640Z,60020.25
2024-02-27T00:48:40.215Z,59990.81
2024-02-27T00:53:42.835Z,60003.44
2024-02-27T00:58:45.052Z,60018.16
2024-02-27T01:03:48.714Z,60058.09
2024-02-27T01:08:50.812Z,60003.44
2024-02-27T01:13:52.874Z,60041.28
2024-02-27T01:18:56.405Z,60007.66
2024-02-27T01:23:59.468Z,60053.91
2024-02-27T01:29:01.693Z,60028.66
2024-02-27T01:34:05.497Z,60060.19
2024-02-27T01:39:09.316Z,60043.38
2024-02-27T01:44:11.447Z,60011.84
2024-02-27T01:49:15.946Z,60032.88
2024-02-27T01:54:20.885Z,60016.06
2024-02-27T01:59:23.302Z,60020.25
2024-02-27T02:04:28.137Z,60024.47
2024-02-27T02:09:30.629Z,60037.06
2024-02-27T02:14:32.933Z,60024.47
2024-02-27T02:19:36.335Z,60053.91
2024-02-27T02:24:40.298Z,60024.47
2024-02-27T02:29:42.361Z,60024.47
2024-02-27T02:34:44.482Z,60034.97
2024-02-27T02:39:48.067Z,60018.16
2024-02-27T02:44:50.136Z,60011.84
2024-02-27T02:49:52.382Z,60013.94
2024-02-27T02:54:56.008Z,60003.44
2024-02-27T02:59:58.278Z,60022.34
2024-02-27T03:05:00.377Z,59995.03
2024-02-27T03:10:04.707Z,59995.03
2024-02-27T03:15:07.434Z,59999.22
2024-02-27T03:20:11.466Z,60011.84
2024-02-27T03:25:15.124Z,60041.28
2024-02-27T03:30:19.938Z,60018.16
2024-02-27T03:35:23.183Z,60032.88
2024-02-27T03:40:26.567Z,60037.06
2024-02-27T03:45:28.647Z,60013.94
2024-02-27T03:50:30.737Z,60005.53
2024-02-27T03:55:34.400Z,60028.66
2024-02-27T04:00:36.753Z,60062.31
2024-02-27T04:05:38.992Z,59995.03
2024-02-27T04:10:42.620Z,59997.13
2024-02-27T04:15:47.701Z,60045.47
2024-02-27T04:20:50.310Z,60022.34
2024-02-27T04:25:53.869Z,60001.34
2024-02-27T04:30:56.065Z,60028.66
2024-02-27T04:35:58.212Z,60028.66
2024-02-27T04:41:01.697Z,60037.06
2024-02-27T04:46:03.898Z,60032.88
2024-02-27T04:51:07.605Z,60041.28
2024-02-27T04:56:11.114Z,60020.25
2024-02-27T05:01:14.967Z,60030.78
2024-02-27T05:06:17.253Z,60016.06
2024-02-27T05:11:20.654Z,60043.38
2024-02-27T05:16:22.919Z,60030.78
2024-02-27T05:21:25.016Z,60043.38
2024-02-27T05:26:28.483Z,60024.47
2024-02-27T05:31:31.831Z,60039.19
2024-02-27T05:36:34.476Z,60062.31
2024-02-27T05:41:37.824Z,60085.44
2024-02-27T05:46:40.029Z,60039.19
2024-02-27T05:51:43.024Z,60062.31
2024-02-27T05:56:46.813Z,60039.19
2024-02-27T06:01:48.867Z,60030.78
2024-02-27T06:06:51.103Z,60058.09
2024-02-27T06:11:54.667Z,60022.34
2024-02-27T06:16:57.164Z,60045.47
2024-02-27T06:22:11.643Z,60043.38
2024-02-27T06:27:15.313Z,60030.78
2024-02-27T06:32:17.556Z,60011.84
2024-02-27T06:37:20.241Z,60016.06
2024-02-27T06:42:24.683Z,59990.81
2024-02-27T06:47:28.204Z,60020.25
2024-02-27T06:52:30.297Z,60016.06
2024-02-27T06:57:33.914Z,60045.47
2024-02-27T07:02:36.093Z,60024.47
2024-02-27T07:07:38.246Z,60013.94
2024-02-27T07:12:43.353Z,60032.88
2024-02-27T07:17:45.774Z,60020.25
2024-02-27T07:22:49.655Z,60007.66
2024-02-27T07:27:53.408Z,60013.94
2024-02-27T07:32:55.840Z,60024.47
2024-02-27T07:37:58.077Z,60011.84
2024-02-27T07:43:02.504Z,60016.06
2024-02-27T07:48:05.686Z,60003.44
2024-02-27T07:53:07.962Z,60024.47
2024-02-27T07:58:11.702Z,59971.91
2024-02-27T08:03:14.009Z,60003.44
2024-02-27T08:08:17.290Z,59997.13
2024-02-27T08:13:23.860Z,60007.66
2024-02-27T08:18:27.025Z,59969.81
2024-02-27T08:23:30.197Z,60013.94
2024-02-27T08:28:33.651Z,59986.63
2024-02-27T08:33:36.023Z,59965.59
2024-02-27T08:38:38.134Z,59982.41
2024-02-27T08:43:44.097Z,60003.44
2024-02-27T08:48:46.837Z,59944.56
2024-02-27T08:53:49.329Z,59980.31
2024-02-27T08:58:52.688Z,59995.03
2024-02-27T09:03:54.832Z,59982.41
2024-02-27T09:08:57.161Z,59990.81
2024-02-27T09:14:00.740Z,60003.44
2024-02-27T09:19:03.167Z,59974.00
2024-02-27T09:24:05.545Z,59940.38
2024-02-27T09:29:09.043Z,59953.00
2024-02-27T09:34:11.326Z,59974.00
2024-02-27T09:39:13.366Z,60011.84
2024-02-27T09:44:17.074Z,59982.41
2024-02-27T09:49:32.633Z,59961.41
2024-02-27T09:54:39.542Z,59931.97
2024-02-27T09:59:43.217Z,59953.00
2024-02-27T10:04:46.205Z,59940.38
2024-02-27T10:09:48.405Z,59915.16
2024-02-27T10:14:51.760Z,59944.56
2024-02-27T10:19:54.483Z,59967.69
2024-02-27T10:25:05.785Z,59940.38
2024-02-27T10:30:11.657Z,59934.06
2024-02-27T10:35:15.756Z,59944.56
2024-02-27T10:40:20.099Z,59946.69
2024-02-27T10:45:24.627Z,59940.38
2024-02-27T10:50:27.831Z,59971.91
2024-02-27T10:55:30.689Z,59936.16
2024-02-27T11:00:34.637Z,59931.97
2024-02-27T11:05:38.846Z,59942.47
2024-02-27T11:10:41.166Z,59919.34
2024-02-27T11:15:47.947Z,59992.94
2024-02-27T11:20:50.855Z,59948.78
2024-02-27T11:25:53.552Z,59948.78
2024-02-27T11:30:57.403Z,59927.75
2024-02-27T11:36:01.202Z,59961.41
2024-02-27T11:41:05.140Z,59921.47
2024-02-27T11:46:36.934Z,59953.00
2024-02-27T11:51:39.196Z,59936.16
2024-02-27T11:56:44.817Z,59892.03
2024-02-27T12:02:02.269Z,59885.72
2024-02-27T12:07:04.786Z,59902.53
2024-02-27T12:12:07.620Z,59915.16
2024-02-27T12:17:11.042Z,59892.03
2024-02-27T12:22:13.461Z,59910.94
2024-02-27T12:27:15.951Z,59921.47
2024-02-27T12:32:20.085Z,59944.56
2024-02-27T12:37:22.171Z,59881.50
2024-02-27T12:42:24.604Z,59927.75
2024-02-27T12:47:28.232Z,59902.53
2024-02-27T12:52:30.610Z,59929.88
2024-02-27T12:57:32.972Z,59915.16
2024-02-27T13:02:36.473Z,59929.88
2024-02-27T13:07:40.204Z,59942.47
2024-02-27T13:12:42.448Z,59950.88
2024-02-27T13:17:46.142Z,59910.94
2024-02-27T13:22:50.525Z,59934.06
2024-02-27T13:27:53.876Z,59965.59
2024-02-27T13:32:57.768Z,59902.53
2024-02-27T13:37:59.927Z,59929.88
2024-02-27T13:43:03.496Z,59946.69
2024-02-27T13:48:10.465Z,59919.34
2024-02-27T13:53:14.397Z,59944.56
2024-02-27T13:58:16.614Z,59913.03
2024-02-27T14:03:20.209Z,59965.59
2024-02-27T14:08:22.536Z,59910.94
2024-02-27T14:13:24.646Z,59974.00
2024-02-27T14:18:28.316Z,59944.56
2024-02-27T14:23:30.679Z,59938.28
2024-02-27T14:28:32.803Z,59961.41
2024-02-27T14:33:36.287Z,59957.19
2024-02-27T14:38:38.577Z,59938.28
2024-02-27T14:43:40.710Z,59965.59
2024-02-27T14:48:44.241Z,59942.47
2024-02-27T14:53:46.361Z,59959.28
2024-02-27T14:58:48.385Z,59971.91
2024-02-27T15:03:52.022Z,59953.00
2024-02-27T15:08:54.178Z,59997.13
2024-02-27T15:13:56.336Z,59982.41
2024-02-27T15:18:59.954Z,59980.31
2024-02-27T15:24:02.425Z,59978.22
2024-02-27T15:29:04.537Z,59980.31
2024-02-27T15:34:08.194Z,59971.91
2024-02-27T15:39:10.354Z,59948.78
2024-02-27T15:44:17.624Z,59944.56
2024-02-27T15:49:25.056Z,59974.00
2024-02-27T15:54:27.351Z,59974.00
2024-02-27T15:59:29.418Z,59957.19
2024-02-27T16:04:41.515Z,59992.94
2024-02-27T16:09:43.823Z,59997.13
2024-02-27T16:14:45.832Z,59969.81
2024-02-27T16:19:50.189Z,59997.13
2024-02-27T16:24:52.589Z,59990.81
2024-02-27T16:29:54.705Z,60011.84
2024-02-27T16:34:58.278Z,59965.59
2024-02-27T16:40:00.621Z,59995.03
2024-02-27T16:45:02.797Z,59974.00
2024-02-27T16:50:07.257Z,59986.63
2024-02-27T16:55:11.690Z,59995.03
2024-02-27T17:00:14.498Z,59982.41
2024-02-27T17:05:17.989Z,60028.66
2024-02-27T17:10:20.165Z,60030.78
2024-02-27T17:15:24.115Z,60016.06
2024-02-27T17:20:27.590Z,60007.66
2024-02-27T17:25:29.675Z,59995.03
2024-02-27T17:30:31.780Z,60037.06
2024-02-27T17:35:35.861Z,59990.81
2024-02-27T17:40:37.972Z,59986.63
2024-02-27T17:45:40.157Z,60024.47
2024-02-27T17:50:44.033Z,60037.06
2024-02-27T17:55:46.527Z,60016.06
2024-02-27T18:00:48.958Z,59997.13
2024-02-27T18:05:53.905Z,60018.16
2024-02-27T18:10:56.106Z,60020.25
2024-02-27T18:15:58.774Z,59986.63
2024-02-27T18:21:02.983Z,59971.91
2024-02-27T18:26:05.522Z,59986.63
2024-02-27T18:31:08.757Z,60018.16
2024-02-27T18:36:12.392Z,59990.81
2024-02-27T18:41:14.679Z,59961.41
2024-02-27T18:46:17.731Z,59986.63
2024-02-27T18:51:21.361Z,60024.47
2024-02-27T18:56:23.432Z,60041.28
2024-02-27T19:01:25.698Z,60032.88
2024-02-27T19:06:29.397Z,60001.34
2024-02-27T19:11:31.672Z,60022.34
2024-02-27T19:16:33.926Z,60003.44
2024-02-27T19:21:37.482Z,59969.81
2024-02-27T19:26:39.677Z,60016.06
2024-02-27T19:31:41.889Z,59961.41
2024-02-27T19:36:45.585Z,59978.22
2024-02-27T19:41:47.875Z,60001.34
2024-02-27T19:46:50.086Z,59988.72
2024-02-27T19:51:53.620Z,59978.22
2024-02-27T19:56:55.897Z,59961.41
2024-02-27T20:01:58.617Z,60009.75
2024-02-27T20:07:01.939Z,60018.16
2024-02-27T20:12:04.387Z,59978.22
2024-02-27T20:17:06.671Z,59971.91
2024-02-27T20:22:10.217Z,59982.41
2024-02-27T20:27:12.563Z,60041.28
2024-02-27T20:32:14.717Z,60007.66
2024-02-27T20:37:18.208Z,59974.00
2024-02-27T20:42:20.324Z,59990.81
2024-02-27T20:47:22.493Z,59971.91
2024-02-27T20:52:25.952Z,59984.53
2024-02-27T20:57:28.145Z,60001.34
2024-02-27T21:02:32.548Z,59974.00
2024-02-27T21:07:36.509Z,60003.44
2024-02-27T21:12:41.879Z,59961.41
2024-02-27T21:17:44.115Z,59990.81
2024-02-27T21:22:47.610Z,59995.03
2024-02-27T21:27:53.886Z,59974.00
2024-02-27T21:32:56.164Z,59982.41
2024-02-27T21:37:59.673Z,60007.66
2024-02-27T21:43:02.044Z,59992.94
2024-02-27T21:48:04.861Z,59978.22
2024-02-27T21:53:08.441Z,60022.34
2024-02-27T21:58:10.823Z,59961.41
2024-02-27T22:03:13.361Z,59995.03
2024-02-27T22:08:17.068Z,59980.31
2024-02-27T22:13:19.165Z,59971.91
2024-02-27T22:18:21.413Z,59959.28
2024-02-27T22:23:24.930Z,60003.44
2024-02-27T22:28:26.960Z,59982.41
2024-02-27T22:33:29.230Z,60003.44
2024-02-27T22:38:32.825Z,59969.81
2024-02-27T22:43:34.856Z,59965.59
2024-02-27T22:48:37.039Z,59961.41
2024-02-27T22:53:40.693Z,59974.00
2024-02-27T22:58:42.782Z,59974.00
2024-02-27T23:03:44.913Z,60020.25
2024-02-27T23:08:48.493Z,59982.41
2024-02-27T23:13:50.579Z,59965.59
2024-02-27T23:18:52.670Z,59986.63
2024-02-27T23:23:56.612Z,59967.69
2024-02-27T23:28:58.725Z,59986.63
2024-02-27T23:34:01.005Z,60058.09
2024-02-27T23:39:07.508Z,59990.81
2024-02-27T23:44:09.664Z,59997.13
2024-02-27T23:49:11.691Z,60005.53
2024-02-27T23:54:15.101Z,59980.31
2024-02-27T23:59:19.040Z,59974.00
